| time (UTC) | temp C | wind direction | speed KPH | gust KPH | rain 1hr cm | rain 24hr cm | rain mn cm | humidity % | barometer mb |
| 20260507015420 | 22 | 179 | 4.8 | 14.5 | 0.00 | 0.00 | 0.00 | 77 | 1013.7 |
| 20260507014938 | 22 | 157 | 6.4 | 14.5 | 0.00 | 0.00 | 0.00 | 77 | 1013.7 |
| 20260507013930 | 23 | 170 | 6.4 | 19.3 | 0.00 | 0.00 | 0.00 | 77 | 1014.1 |
| 20260507013429 | 23 | 181 | 4.8 | 19.3 | 0.00 | 0.00 | 0.00 | 77 | 1014.1 |
| 20260507012927 | 22 | 168 | 8.0 | 19.3 | 0.00 | 0.00 | 0.00 | 77 | 1014.1 |
| 20260507012428 | 22 | 175 | 6.4 | 16.1 | 0.00 | 0.00 | 0.00 | 77 | 1014.1 |
| 20260507011905 | 22 | 179 | 6.4 | 16.1 | 0.00 | 0.00 | 0.00 | 77 | 1014.2 |
| 20260507010941 | 23 | 164 | 6.4 | 19.3 | 0.00 | 0.00 | 0.00 | 77 | 1014.2 |
| 20260507010418 | 23 | 165 | 11.3 | 22.5 | 0.00 | 0.00 | 0.00 | 77 | 1014.3 |
| 20260507005945 | 23 | 183 | 6.4 | 22.5 | 0.00 | 0.00 | 0.00 | 77 | 1014.4 |
| 20260507005409 | 23 | 177 | 4.8 | 16.1 | 0.00 | 0.00 | 0.00 | 77 | 1014.3 |
| 20260507004915 | 23 | 177 | 4.8 | 16.1 | 0.00 | 0.00 | 0.00 | 76 | 1014.1 |
| 20260507004426 | 23 | 173 | 8.0 | 16.1 | 0.00 | 0.00 | 0.00 | 76 | 1014.1 |
| 20260507003908 | 23 | 174 | 4.8 | 16.1 | 0.00 | 0.00 | 0.00 | 76 | 1014.2 |
| 20260507003430 | 23 | 182 | 6.4 | 19.3 | 0.00 | 0.00 | 0.00 | 75 | 1014.1 |
| 20260507002938 | 23 | 166 | 8.0 | 19.3 | 0.00 | 0.00 | 0.00 | 74 | 1014.1 |
| 20260507002426 | 23 | 162 | 8.0 | 17.7 | 0.00 | 0.00 | 0.00 | 73 | 1014.0 |
| 20260507001924 | 23 | 172 | 6.4 | 20.9 | 0.00 | 0.00 | 0.00 | 72 | 1013.9 |
| 20260507001412 | 23 | 169 | 4.8 | 20.9 | 0.00 | 0.00 | 0.00 | 71 | 1014.0 |
| 20260507000407 | 23 | 193 | 6.4 | 19.3 | 0.00 | 0.00 | 0.00 | 70 | 1014.1 |
| 20260506235944 | 23 | 184 | 3.2 | 25.7 | 0.00 | 0.00 | 0.00 | 69 | 1014.2 |
| 20260506235442 | 23 | 182 | 8.0 | 25.7 | 0.00 | 0.00 | 0.00 | 69 | 1014.1 |
| 20260506234925 | 23 | 181 | 6.4 | 14.5 | 0.00 | 0.00 | 0.00 | 68 | 1014.1 |
| 20260506234419 | 23 | 199 | 6.4 | 19.3 | 0.00 | 0.00 | 0.00 | 68 | 1014.1 |
| 20260506233922 | 23 | 185 | 6.4 | 20.9 | 0.00 | 0.00 | 0.00 | 68 | 1013.9 |
| 20260506232918 | 24 | 154 | 4.8 | 17.7 | 0.00 | 0.00 | 0.00 | 67 | 1013.6 |
| 20260506232441 | 24 | 184 | 8.0 | 27.4 | 0.00 | 0.00 | 0.00 | 67 | 1013.8 |
| 20260506231900 | 24 | 163 | 11.3 | 27.4 | 0.00 | 0.00 | 0.00 | 67 | 1013.8 |
| 20260506231440 | 24 | 192 | 4.8 | 22.5 | 0.00 | 0.00 | 0.00 | 67 | 1014.0 |
| 20260506225413 | 25 | 179 | 11.3 | 20.9 | 0.00 | 0.00 | 0.00 | 65 | 1013.9 |
| 20260506224920 | 25 | 179 | 8.0 | 17.7 | 0.00 | 0.00 | 0.00 | 65 | 1014.0 |
| 20260506222942 | 25 | 192 | 8.0 | 17.7 | 0.00 | 0.00 | 0.00 | 63 | 1014.1 |
| 20260506222409 | 25 | 180 | 6.4 | 19.3 | 0.00 | 0.00 | 0.00 | 64 | 1014.0 |
| 20260506221924 | 25 | 185 | 8.0 | 22.5 | 0.00 | 0.00 | 0.00 | 63 | 1013.9 |
| 20260506221445 | 26 | 182 | 11.3 | 22.5 | 0.00 | 0.00 | 0.00 | 62 | 1013.7 |
| 20260506220918 | 26 | 178 | 9.7 | 22.5 | 0.00 | 0.00 | 0.00 | 63 | 1013.7 |
| 20260506220443 | 26 | 181 | 6.4 | 25.7 | 0.00 | 0.00 | 0.00 | 63 | 1013.8 |
| 20260506215905 | 26 | 189 | 9.7 | 25.7 | 0.00 | 0.00 | 0.00 | 62 | 1013.7 |
| 20260506214912 | 26 | 202 | 6.4 | 17.7 | 0.00 | 0.00 | 0.00 | 61 | 1014.0 |
| 20260506214405 | 26 | 208 | 4.8 | 24.1 | 0.00 | 0.00 | 0.00 | 63 | 1013.9 |
| 20260506213931 | 26 | 189 | 6.4 | 29.0 | 0.00 | 0.00 | 0.00 | 63 | 1013.7 |
| 20260506213421 | 26 | 194 | 12.9 | 29.0 | 0.00 | 0.00 | 0.00 | 61 | 1013.7 |
| 20260506212435 | 26 | 167 | 8.0 | 25.7 | 0.00 | 0.00 | 0.00 | 61 | 1013.9 |
| 20260506211937 | 26 | 167 | 12.9 | 25.7 | 0.00 | 0.00 | 0.00 | 61 | 1014.0 |
| 20260506211440 | 26 | 194 | 12.9 | 27.4 | 0.00 | 0.00 | 0.00 | 61 | 1014.0 |
| 20260506210918 | 27 | 176 | 12.9 | 35.4 | 0.00 | 0.00 | 0.00 | 60 | 1014.0 |
| 20260506210404 | 27 | 172 | 11.3 | 35.4 | 0.00 | 0.00 | 0.00 | 60 | 1013.9 |
| 20260506205416 | 27 | 174 | 12.9 | 27.4 | 0.00 | 0.00 | 0.00 | 59 | 1013.8 |
| 20260506204426 | 27 | 187 | 12.9 | 27.4 | 0.00 | 0.00 | 0.00 | 59 | 1014.1 |
| 20260506203927 | 27 | 166 | 12.9 | 27.4 | 0.00 | 0.00 | 0.00 | 60 | 1014.0 |
| 20260506203445 | 27 | 175 | 12.9 | 24.1 | 0.00 | 0.00 | 0.00 | 60 | 1014.1 |
| 20260506202904 | 27 | 173 | 12.9 | 24.1 | 0.00 | 0.00 | 0.00 | 59 | 1014.1 |
| 20260506202444 | 27 | 182 | 11.3 | 24.1 | 0.00 | 0.00 | 0.00 | 58 | 1014.2 |
| 20260506201937 | 27 | 205 | 6.4 | 22.5 | 0.00 | 0.00 | 0.00 | 57 | 1014.2 |
| 20260506201443 | 28 | 190 | 11.3 | 22.5 | 0.00 | 0.00 | 0.00 | 56 | 1014.1 |
| 20260506200904 | 27 | 195 | 6.4 | 29.0 | 0.00 | 0.00 | 0.00 | 59 | 1014.1 |
| 20260506200406 | 28 | 188 | 16.1 | 29.0 | 0.00 | 0.00 | 0.00 | 58 | 1014.3 |
| 20260506195419 | 27 | 196 | 8.0 | 25.7 | 0.00 | 0.00 | 0.00 | 59 | 1014.5 |
| 20260506194908 | 27 | 193 | 9.7 | 27.4 | 0.00 | 0.00 | 0.00 | 59 | 1014.5 |
| 20260506193422 | 28 | 158 | 11.3 | 30.6 | 0.00 | 0.00 | 0.00 | 60 | 1014.5 |
| 20260506192402 | 28 | 180 | 8.0 | 25.7 | 0.00 | 0.00 | 0.00 | 58 | 1014.3 |
| 20260506191923 | 28 | 202 | 9.7 | 22.5 | 0.00 | 0.00 | 0.00 | 58 | 1014.5 |
| 20260506190433 | 28 | 188 | 8.0 | 25.7 | 0.00 | 0.00 | 0.00 | 58 | 1014.9 |
| 20260506185921 | 27 | 176 | 14.5 | 25.7 | 0.00 | 0.00 | 0.00 | 58 | 1015.0 |
| 20260506185412 | 27 | 157 | 11.3 | 19.3 | 0.00 | 0.00 | 0.00 | 58 | 1015.1 |
| 20260506184944 | 28 | 171 | 8.0 | 19.3 | 0.00 | 0.00 | 0.00 | 58 | 1015.3 |
| 20260506184412 | 28 | 191 | 6.4 | 17.7 | 0.00 | 0.00 | 0.00 | 57 | 1015.4 |
| 20260506183938 | 28 | 219 | 4.8 | 17.7 | 0.00 | 0.00 | 0.00 | 57 | 1015.4 |
| 20260506183421 | 28 | 203 | 4.8 | 17.7 | 0.00 | 0.00 | 0.00 | 58 | 1015.5 |
| 20260506182910 | 28 | 182 | 4.8 | 20.9 | 0.00 | 0.00 | 0.00 | 61 | 1015.4 |
| 20260506182402 | 27 | 172 | 11.3 | 24.1 | 0.00 | 0.00 | 0.00 | 60 | 1015.5 |
| 20260506181933 | 27 | 174 | 11.3 | 24.1 | 0.00 | 0.00 | 0.00 | 58 | 1015.5 |
| 20260506181439 | 27 | 174 | 14.5 | 24.1 | 0.00 | 0.00 | 0.00 | 60 | 1015.5 |
| 20260506180920 | 27 | 151 | 8.0 | 17.7 | 0.00 | 0.00 | 0.00 | 60 | 1015.5 |
| 20260506180422 | 28 | 172 | 6.4 | 14.5 | 0.00 | 0.00 | 0.00 | 60 | 1015.6 |
| 20260506175922 | 28 | 291 | 4.8 | 9.7 | 0.00 | 0.00 | 0.00 | 55 | 1015.8 |
| 20260506175438 | 27 | 209 | 3.2 | 14.5 | 0.00 | 0.00 | 0.00 | 59 | 1016.1 |
| 20260506174930 | 27 | 209 | 4.8 | 19.3 | 0.00 | 0.00 | 0.00 | 61 | 1016.1 |
| 20260506174417 | 27 | 182 | 4.8 | 14.5 | 0.00 | 0.00 | 0.00 | 60 | 1016.1 |
| 20260506173939 | 27 | 228 | 6.4 | 12.9 | 0.00 | 0.00 | 0.00 | 58 | 1016.2 |
| 20260506173424 | 27 | 230 | 4.8 | 20.9 | 0.00 | 0.00 | 0.00 | 61 | 1016.2 |
| 20260506172941 | 27 | 224 | 6.4 | 20.9 | 0.00 | 0.00 | 0.00 | 59 | 1016.2 |
| 20260506171941 | 28 | 168 | 6.4 | 20.9 | 0.00 | 0.00 | 0.00 | 58 | 1016.0 |
| 20260506171405 | 28 | 219 | 4.8 | 19.3 | 0.00 | 0.00 | 0.00 | 57 | 1016.2 |
| 20260506170939 | 28 | 215 | 4.8 | 19.3 | 0.00 | 0.00 | 0.00 | 58 | 1016.2 |
| 20260506165928 | 27 | 220 | 9.7 | 22.5 | 0.00 | 0.00 | 0.00 | 56 | 1016.5 |
| 20260506165422 | 27 | 239 | 8.0 | 22.5 | 0.00 | 0.00 | 0.00 | 57 | 1016.4 |
| 20260506164913 | 27 | 250 | 6.4 | 19.3 | 0.00 | 0.00 | 0.00 | 58 | 1016.5 |
| 20260506164425 | 27 | 165 | 6.4 | 19.3 | 0.00 | 0.00 | 0.00 | 59 | 1016.3 |
| 20260506163929 | 27 | 244 | 8.0 | 16.1 | 0.00 | 0.00 | 0.00 | 58 | 1016.4 |
| 20260506163422 | 27 | 226 | 4.8 | 16.1 | 0.00 | 0.00 | 0.00 | 59 | 1016.4 |
| 20260506162938 | 27 | 220 | 6.4 | 16.1 | 0.00 | 0.00 | 0.00 | 60 | 1016.5 |
| 20260506161906 | 27 | 173 | 9.7 | 22.5 | 0.00 | 0.00 | 0.00 | 59 | 1016.6 |
| 20260506161420 | 27 | 216 | 6.4 | 14.5 | 0.00 | 0.00 | 0.00 | 58 | 1016.7 |
| 20260506160931 | 26 | 193 | 4.8 | 14.5 | 0.00 | 0.00 | 0.00 | 59 | 1016.8 |
| 20260506155903 | 26 | 160 | 9.7 | 20.9 | 0.00 | 0.00 | 0.00 | 58 | 1016.7 |
| 20260506155446 | 26 | 182 | 8.0 | 19.3 | 0.00 | 0.00 | 0.00 | 57 | 1016.9 |
| 20260506153913 | 26 | 200 | 11.3 | 24.1 | 0.00 | 0.00 | 0.00 | 55 | 1017.1 |
| 20260506152906 | 26 | 193 | 8.0 | 20.9 | 0.00 | 0.00 | 0.00 | 56 | 1016.9 |
| 20260506151909 | 26 | 230 | 8.0 | 22.5 | 0.00 | 0.00 | 0.00 | 56 | 1017.1 |
| 20260506151420 | 26 | 239 | 4.8 | 20.9 | 0.00 | 0.00 | 0.00 | 56 | 1017.1 |
| 20260506145931 | 26 | 226 | 8.0 | 19.3 | 0.00 | 0.00 | 0.00 | 58 | 1017.1 |
| 20260506145412 | 26 | 190 | 6.4 | 19.3 | 0.00 | 0.00 | 0.00 | 59 | 1017.1 |
| 20260506144924 | 25 | 192 | 8.0 | 20.9 | 0.00 | 0.00 | 0.00 | 60 | 1017.0 |
| 20260506144445 | 25 | 163 | 11.3 | 20.9 | 0.00 | 0.00 | 0.00 | 62 | 1016.9 |
| 20260506143944 | 25 | 176 | 6.4 | 14.5 | 0.00 | 0.00 | 0.00 | 61 | 1016.9 |
| 20260506143409 | 25 | 221 | 4.8 | 16.1 | 0.00 | 0.00 | 0.00 | 61 | 1016.7 |
| 20260506142936 | 25 | 191 | 4.8 | 24.1 | 0.00 | 0.00 | 0.00 | 62 | 1016.8 |
| 20260506142442 | 25 | 200 | 6.4 | 24.1 | 0.00 | 0.00 | 0.00 | 60 | 1016.8 |
| 20260506141428 | 25 | 185 | 8.0 | 17.7 | 0.00 | 0.00 | 0.00 | 61 | 1016.9 |
| 20260506140944 | 25 | 176 | 6.4 | 17.7 | 0.00 | 0.00 | 0.00 | 62 | 1016.9 |
| 20260506140423 | 24 | 184 | 8.0 | 17.7 | 0.00 | 0.00 | 0.00 | 62 | 1017.0 |
| 20260506135933 | 24 | 191 | 4.8 | 17.7 | 0.00 | 0.00 | 0.00 | 62 | 1016.8 |
| 20260506134922 | 24 | 200 | 11.3 | 24.1 | 0.00 | 0.00 | 0.00 | 62 | 1016.6 |
| 20260506134411 | 24 | 214 | 9.7 | 22.5 | 0.00 | 0.00 | 0.00 | 64 | 1016.8 |
| 20260506133917 | 24 | 186 | 9.7 | 22.5 | 0.00 | 0.00 | 0.00 | 64 | 1016.7 |
| 20260506132905 | 24 | 184 | 9.7 | 25.7 | 0.00 | 0.00 | 0.00 | 66 | 1016.7 |
| 20260506132436 | 23 | 205 | 4.8 | 20.9 | 0.00 | 0.00 | 0.00 | 69 | 1016.7 |
| 20260506131906 | 23 | 213 | 4.8 | 20.9 | 0.00 | 0.00 | 0.00 | 69 | 1016.6 |
| 20260506131420 | 23 | 177 | 8.0 | 19.3 | 0.00 | 0.00 | 0.00 | 71 | 1016.5 |
| 20260506130407 | 23 | 210 | 3.2 | 17.7 | 0.00 | 0.00 | 0.00 | 73 | 1016.5 |
| 20260506125928 | 22 | 187 | 4.8 | 14.5 | 0.00 | 0.00 | 0.00 | 74 | 1016.4 |
| 20260506125420 | 22 | 193 | 4.8 | 12.9 | 0.00 | 0.00 | 0.00 | 75 | 1016.4 |
| 20260506124921 | 22 | 201 | 6.4 | 12.9 | 0.00 | 0.00 | 0.00 | 76 | 1016.5 |
| 20260506124446 | 22 | 177 | 6.4 | 12.9 | 0.00 | 0.00 | 0.00 | 77 | 1016.4 |
| 20260506122901 | 21 | 188 | 3.2 | 14.5 | 0.00 | 0.00 | 0.00 | 82 | 1016.2 |
| 20260506122418 | 20 | 175 | 4.8 | 12.9 | 0.00 | 0.00 | 0.00 | 85 | 1016.4 |
| 20260506121940 | 20 | 172 | 1.6 | 8.0 | 0.00 | 0.00 | 0.00 | 87 | 1016.4 |
| 20260506121432 | 18 | 173 | 3.2 | 8.0 | 0.00 | 0.00 | 0.00 | 89 | 1016.3 |
| 20260506120907 | 17 | 180 | 1.6 | 8.0 | 0.00 | 0.00 | 0.00 | 92 | 1016.4 |
| 20260506120406 | 15 | 193 | 3.2 | 8.0 | 0.00 | 0.00 | 0.00 | 92 | 1016.5 |
| 20260506115919 | 14 | 144 | 0.0 | 3.2 | 0.00 | 0.00 | 0.00 | 92 | 1016.3 |
| 20260506115402 | 13 | 131 | 0.0 | 3.2 | 0.00 | 0.00 | 0.00 | 92 | 1016.4 |
| 20260506114418 | 12 | 109 | 0.0 | 3.2 | 0.00 | 0.00 | 0.00 | 92 | 1016.2 |
| 20260506113946 | 12 | 79 | 0.0 | 3.2 | 0.00 | 0.00 | 0.00 | 91 | 1016.2 |
| 20260506111907 | 12 | 77 | 1.6 | 3.2 | 0.00 | 0.00 | 0.00 | 91 | 1015.9 |
| 20260506111435 | 12 | 55 | 0.0 | 1.6 | 0.00 | 0.00 | 0.00 | 91 | 1016.1 |
| 20260506110414 | 11 | 90 | 0.0 | 1.6 | 0.00 | 0.00 | 0.00 | 91 | 1015.9 |
| 20260506105903 | 11 | 55 | 0.0 | 1.6 | 0.00 | 0.00 | 0.00 | 91 | 1015.8 |
| 20260506105430 | 11 | 63 | 0.0 | 1.6 | 0.00 | 0.00 | 0.00 | 91 | 1015.9 |
| 20260506104920 | 11 | 59 | 0.0 | 3.2 | 0.00 | 0.00 | 0.00 | 91 | 1015.9 |
| 20260506103910 | 11 | 89 | 0.0 | 3.2 | 0.00 | 0.00 | 0.00 | 91 | 1015.9 |
| 20260506103407 | 11 | 32 | 0.0 | 1.6 | 0.00 | 0.00 | 0.00 | 91 | 1015.9 |
| 20260506102415 | 11 | 47 | 0.0 | 1.6 | 0.00 | 0.00 | 0.00 | 91 | 1015.8 |
| 20260506101913 | 11 | 49 | 0.0 | 1.6 | 0.00 | 0.00 | 0.00 | 91 | 1015.7 |
| 20260506101432 | 11 | 77 | 0.0 | 1.6 | 0.00 | 0.00 | 0.00 | 91 | 1015.7 |
| 20260506100944 | 11 | 33 | 0.0 | 1.6 | 0.00 | 0.00 | 0.00 | 91 | 1015.6 |
| 20260506100443 | 11 | 60 | 0.0 | 1.6 | 0.00 | 0.00 | 0.00 | 91 | 1015.6 |
| 20260506095924 | 11 | 76 | 0.0 | 1.6 | 0.00 | 0.00 | 0.00 | 91 | 1015.6 |
| 20260506095422 | 11 | 129 | 0.0 | 1.6 | 0.00 | 0.00 | 0.00 | 91 | 1015.6 |
| 20260506094920 | 11 | 29 | 0.0 | 1.6 | 0.00 | 0.00 | 0.00 | 91 | 1015.7 |
| 20260506094414 | 11 | 45 | 0.0 | 1.6 | 0.00 | 0.00 | 0.00 | 91 | 1015.7 |
| 20260506093913 | 11 | 45 | 0.0 | 1.6 | 0.00 | 0.00 | 0.00 | 91 | 1015.7 |
| 20260506093422 | 11 | 41 | 0.0 | 1.6 | 0.00 | 0.00 | 0.00 | 91 | 1015.7 |
| 20260506092920 | 12 | 41 | 0.0 | 3.2 | 0.00 | 0.00 | 0.00 | 91 | 1015.8 |
| 20260506092441 | 12 | 59 | 0.0 | 3.2 | 0.00 | 0.00 | 0.00 | 91 | 1015.7 |
| 20260506091943 | 12 | 50 | 1.6 | 1.6 | 0.00 | 0.00 | 0.00 | 91 | 1015.6 |
| 20260506091427 | 12 | 56 | 1.6 | 1.6 | 0.00 | 0.00 | 0.00 | 91 | 1015.6 |
| 20260506090434 | 12 | 67 | 0.0 | 1.6 | 0.00 | 0.00 | 0.00 | 91 | 1015.7 |
| 20260506085421 | 12 | 58 | 1.6 | 3.2 | 0.00 | 0.00 | 0.00 | 91 | 1015.8 |
| 20260506084921 | 12 | 56 | 0.0 | 1.6 | 0.00 | 0.00 | 0.00 | 91 | 1015.8 |
| 20260506084443 | 12 | 20 | 0.0 | 1.6 | 0.00 | 0.00 | 0.00 | 91 | 1016.0 |
| 20260506083417 | 11 | 25 | 0.0 | 1.6 | 0.00 | 0.00 | 0.00 | 91 | 1015.8 |
| 20260506082930 | 11 | 44 | 0.0 | 1.6 | 0.00 | 0.00 | 0.00 | 91 | 1015.8 |
| 20260506082431 | 11 | 36 | 0.0 | 1.6 | 0.00 | 0.00 | 0.00 | 91 | 1015.8 |
| 20260506081925 | 11 | 35 | 0.0 | 1.6 | 0.00 | 0.00 | 0.00 | 91 | 1015.8 |
| 20260506081431 | 11 | 66 | 0.0 | 1.6 | 0.00 | 0.00 | 0.00 | 91 | 1015.7 |
| 20260506080911 | 11 | 51 | 0.0 | 1.6 | 0.00 | 0.00 | 0.00 | 91 | 1015.7 |
| 20260506080405 | 11 | 38 | 0.0 | 1.6 | 0.00 | 0.00 | 0.00 | 91 | 1015.7 |
| 20260506073403 | 11 | 29 | 0.0 | 1.6 | 0.00 | 0.00 | 0.00 | 91 | 1015.5 |
| 20260506072909 | 11 | 53 | 0.0 | 1.6 | 0.00 | 0.00 | 0.00 | 91 | 1015.4 |
| 20260506072443 | 11 | 37 | 1.6 | 1.6 | 0.00 | 0.00 | 0.00 | 91 | 1015.4 |
| 20260506071404 | 11 | 46 | 0.0 | 3.2 | 0.00 | 0.00 | 0.00 | 91 | 1015.5 |
| 20260506070903 | 11 | 61 | 1.6 | 3.2 | 0.00 | 0.00 | 0.00 | 91 | 1015.5 |
| 20260506061921 | 11 | 63 | 0.0 | 1.6 | 0.00 | 0.00 | 0.00 | 91 | 1015.5 |
| 20260506061408 | 11 | 53 | 0.0 | 1.6 | 0.00 | 0.00 | 0.00 | 91 | 1015.6 |
| 20260506060939 | 11 | 48 | 0.0 | 1.6 | 0.00 | 0.00 | 0.00 | 91 | 1015.6 |
| 20260506060422 | 11 | 64 | 1.6 | 1.6 | 0.00 | 0.00 | 0.00 | 91 | 1015.7 |
| 20260506050907 | 11 | 53 | 1.6 | 1.6 | 0.00 | 0.00 | 0.00 | 90 | 1016.4 |
| 20260506050439 | 11 | 32 | 0.0 | 1.6 | 0.00 | 0.00 | 0.00 | 90 | 1016.4 |
| 20260506044930 | 11 | 55 | 1.6 | 1.6 | 0.00 | 0.00 | 0.00 | 90 | 1016.6 |
| 20260506044431 | 11 | 58 | 0.0 | 3.2 | 0.00 | 0.00 | 0.00 | 90 | 1016.7 |
| 20260506043904 | 11 | 16 | 0.0 | 3.2 | 0.00 | 0.00 | 0.00 | 90 | 1016.7 |
| 20260506042909 | 11 | 35 | 1.6 | 1.6 | 0.00 | 0.00 | 0.00 | 90 | 1016.9 |
| 20260506041938 | 11 | 42 | 1.6 | 3.2 | 0.00 | 0.00 | 0.00 | 90 | 1016.8 |
| 20260506041427 | 12 | 40 | 1.6 | 3.2 | 0.00 | 0.00 | 0.00 | 90 | 1016.7 |
| 20260506040928 | 12 | 53 | 1.6 | 3.2 | 0.00 | 0.00 | 0.00 | 90 | 1016.7 |
| 20260506035906 | 12 | 44 | 0.0 | 1.6 | 0.00 | 0.00 | 0.00 | 90 | 1016.9 |
| 20260506035400 | 12 | 43 | 0.0 | 1.6 | 0.00 | 0.00 | 0.00 | 90 | 1016.8 |
| 20260506034936 | 12 | 33 | 0.0 | 3.2 | 0.00 | 0.00 | 0.00 | 90 | 1016.6 |
| 20260506034424 | 12 | 334 | 0.0 | 3.2 | 0.00 | 0.00 | 0.00 | 89 | 1016.6 |
| 20260506033920 | 12 | 60 | 1.6 | 1.6 | 0.00 | 0.00 | 0.00 | 89 | 1016.6 |
| 20260506033403 | 12 | 63 | 0.0 | 1.6 | 0.00 | 0.00 | 0.00 | 89 | 1016.6 |
| 20260506032912 | 12 | 65 | 1.6 | 1.6 | 0.00 | 0.00 | 0.00 | 89 | 1016.6 |
| 20260506032428 | 12 | 58 | 1.6 | 1.6 | 0.00 | 0.00 | 0.00 | 89 | 1016.7 |
| 20260506031916 | 12 | 82 | 0.0 | 3.2 | 0.00 | 0.00 | 0.00 | 89 | 1016.7 |
| 20260506031440 | 12 | 67 | 1.6 | 3.2 | 0.00 | 0.00 | 0.00 | 89 | 1016.6 |
| 20260506030919 | 12 | 60 | 1.6 | 3.2 | 0.00 | 0.00 | 0.00 | 89 | 1016.7 |
| 20260506030435 | 12 | 59 | 1.6 | 3.2 | 0.00 | 0.00 | 0.00 | 89 | 1016.7 |
| 20260506025927 | 13 | 43 | 1.6 | 1.6 | 0.00 | 0.00 | 0.00 | 89 | 1016.8 |
| 20260506024946 | 13 | 62 | 1.6 | 3.2 | 0.00 | 0.00 | 0.00 | 88 | 1017.1 |
| 20260506024430 | 13 | 48 | 1.6 | 1.6 | 0.00 | 0.00 | 0.00 | 88 | 1017.2 |
| 20260506023913 | 13 | 49 | 1.6 | 3.2 | 0.00 | 0.00 | 0.00 | 88 | 1017.2 |
| 20260506023444 | 13 | 58 | 1.6 | 3.2 | 0.00 | 0.00 | 0.00 | 88 | 1017.2 |
| 20260506022916 | 13 | 54 | 1.6 | 3.2 | 0.00 | 0.00 | 0.00 | 87 | 1017.3 |
| 20260506022403 | 13 | 15 | 0.0 | 1.6 | 0.00 | 0.00 | 0.00 | 87 | 1017.3 |
| 20260506021442 | 13 | 58 | 0.0 | 3.2 | 0.00 | 0.00 | 0.00 | 87 | 1017.0 |
| 20260506020407 | 14 | 73 | 1.6 | 1.6 | 0.00 | 0.00 | 0.00 | 87 | 1016.8 |
| 20260506015907 | 14 | 163 | 0.0 | 1.6 | 0.00 | 0.00 | 0.00 | 86 | 1016.8 |